Time;durP1;ratioP1;P1;durP2;ratioP2;P2;SDS_P1;SDS_P2;PMS_P1;PMS_P2;Temp;Humidity;BMP_temperature;BMP_pressure;BME280_temperature;BME280_humidity;BME280_pressure;Samples;Min_cycle;Max_cycle;Signal;HPM_P1;HPM_P2
2022/08/17 00:01:37;;;;;;;;;;;;;;;17.07;47.45;100124.09;5061250;28;1910;-60
2022/08/17 00:04:03;;;;;;;;;;;;;;;17.02;46.97;100121.41;5061163;28;1310;-60
2022/08/17 00:06:28;;;;;;;;;;;;;;;16.98;47.09;100119.53;5075068;28;977;-60
2022/08/17 00:08:57;;;;;;;;;;;;;;;16.96;47.18;100114.34;5077256;28;1060;-60
2022/08/17 00:11:24;;;;;;;;;;;;;;;17.00;46.99;100122.81;5045372;28;1008;-60
2022/08/17 00:13:51;;;;;;;;;;;;;;;16.93;47.07;100113.00;5064308;28;1085;-60
2022/08/17 00:16:21;;;;;;;;;;;;;;;16.93;46.61;100109.44;5069085;28;1008;-60
2022/08/17 00:18:46;;;;;;;;;;;;;;;16.98;46.37;100106.63;5071877;28;1009;-60
2022/08/17 00:21:12;;;;;;;;;;;;;;;17.02;47.14;100099.44;5061570;28;1965;-60
2022/08/17 00:23:38;;;;;;;;;;;;;;;17.73;48.03;100101.53;5069383;28;1021;-60
2022/08/17 00:26:04;;;;;;;;;;;;;;;17.36;48.03;100101.22;5066999;28;2438;-60
2022/08/17 00:28:29;;;;;;;;;;;;;;;17.27;47.56;100092.00;5062693;28;1134;-59
2022/08/17 00:30:55;;;;;;;;;;;;;;;17.13;47.63;100091.09;5076324;28;1068;-60
2022/08/17 00:33:21;;;;;;;;;;;;;;;17.09;47.18;100091.66;5060621;28;1186;-60
2022/08/17 00:35:47;;;;;;;;;;;;;;;17.09;46.88;100088.09;5067291;28;1017;-60
2022/08/17 00:38:12;;;;;;;;;;;;;;;17.08;46.89;100089.19;5057334;28;1072;-60
2022/08/17 00:40:39;;;;;;;;;;;;;;;17.07;46.67;100088.38;5059837;28;1965;-60
2022/08/17 00:43:15;;;;;;;;;;;;;;;17.06;46.41;100092.25;5072618;28;1001;-60
2022/08/17 00:45:40;;;;;;;;;;;;;;;17.02;46.54;100082.94;5063845;28;1025;-60
2022/08/17 00:48:06;;;;;;;;;;;;;;;16.98;46.45;100084.66;5070153;28;1227;-60
2022/08/17 00:50:31;;;;;;;;;;;;;;;16.95;46.39;100085.25;5066362;28;1084;-60
2022/08/17 00:52:56;;;;;;;;;;;;;;;16.98;46.30;100086.59;5057186;28;1175;-60
2022/08/17 00:55:22;;;;;;;;;;;;;;;17.04;45.96;100094.47;5067426;28;1017;-60
2022/08/17 00:57:49;;;;;;;;;;;;;;;16.98;46.05;100079.16;5062339;28;2384;-60
2022/08/17 01:00:17;;;;;;;;;;;;;;;16.96;46.10;100092.38;5069534;28;1965;-59
2022/08/17 01:02:43;;;;;;;;;;;;;;;16.90;46.30;100093.53;5056745;28;854;-60
2022/08/17 01:05:13;;;;;;;;;;;;;;;16.97;46.22;100098.66;5050111;28;1203;-60
2022/08/17 01:07:39;;;;;;;;;;;;;;;16.85;46.23;100090.81;5055165;28;977;-60
2022/08/17 01:10:04;;;;;;;;;;;;;;;16.86;46.17;100092.47;5053885;28;1167;-60
2022/08/17 01:12:30;;;;;;;;;;;;;;;16.89;46.14;100083.69;5048576;28;842;-59
2022/08/17 01:14:56;;;;;;;;;;;;;;;18.25;46.77;100083.09;5070806;28;1164;-60
2022/08/17 01:17:21;;;;;;;;;;;;;;;17.40;48.41;100079.44;5068267;28;1004;-60
2022/08/17 01:19:46;;;;;;;;;;;;;;;17.26;47.80;100082.94;5063856;28;1020;-60
2022/08/17 01:22:13;;;;;;;;;;;;;;;17.19;47.54;100078.91;5057080;28;2000;-59
2022/08/17 01:24:39;;;;;;;;;;;;;;;17.20;46.98;100080.53;5067341;28;1060;-61
2022/08/17 01:27:05;;;;;;;;;;;;;;;17.04;46.85;100078.00;5063352;28;2368;-59
2022/08/17 01:29:31;;;;;;;;;;;;;;;17.11;46.42;100091.38;5072534;28;1064;-60
2022/08/17 01:31:58;;;;;;;;;;;;;;;17.03;46.43;100081.84;5070884;28;1111;-60
2022/08/17 01:34:24;;;;;;;;;;;;;;;17.07;46.61;100079.34;5043072;28;970;-60
2022/08/17 01:36:50;;;;;;;;;;;;;;;17.02;46.27;100082.13;5067993;28;1079;-59
2022/08/17 01:39:28;;;;;;;;;;;;;;;17.59;46.74;100072.03;5074921;28;984;-60
2022/08/17 01:41:54;;;;;;;;;;;;;;;17.42;47.68;100066.25;5068953;28;1917;-60
2022/08/17 01:44:20;;;;;;;;;;;;;;;17.23;47.35;100069.78;5069415;28;1105;-60
2022/08/17 01:46:45;;;;;;;;;;;;;;;17.17;47.17;100070.16;5056055;28;1084;-60
2022/08/17 01:49:10;;;;;;;;;;;;;;;17.16;46.98;100069.31;5068379;28;1168;-59
2022/08/17 01:51:36;;;;;;;;;;;;;;;17.09;46.90;100069.66;5056434;28;1005;-60
2022/08/17 01:54:05;;;;;;;;;;;;;;;17.06;46.70;100069.47;5069193;28;1033;-58
2022/08/17 01:56:31;;;;;;;;;;;;;;;17.08;46.58;100070.81;5069126;28;2404;-60
2022/08/17 01:58:56;;;;;;;;;;;;;;;17.05;46.41;100068.63;5070775;28;1088;-60
2022/08/17 02:01:23;;;;;;;;;;;;;;;17.11;46.25;100077.66;5062803;28;1917;-59
2022/08/17 02:03:49;;;;;;;;;;;;;;;16.98;46.37;100072.84;5072588;28;1072;-58
2022/08/17 02:06:14;;;;;;;;;;;;;;;16.89;46.69;100072.69;5072675;28;985;-58
2022/08/17 02:08:40;;;;;;;;;;;;;;;16.95;46.21;100067.94;5072867;28;1025;-59
2022/08/17 02:11:06;;;;;;;;;;;;;;;16.91;46.42;100067.72;5074767;28;1067;-59
2022/08/17 02:13:32;;;;;;;;;;;;;;;16.94;46.13;100072.59;5068047;28;1124;-59
2022/08/17 02:15:58;;;;;;;;;;;;;;;16.92;46.36;100064.66;5061759;28;977;-58
2022/08/17 02:18:24;;;;;;;;;;;;;;;17.86;46.85;100061.47;5066904;28;997;-59
2022/08/17 02:20:50;;;;;;;;;;;;;;;17.52;47.58;100068.03;5064241;28;1973;-60
2022/08/17 02:23:15;;;;;;;;;;;;;;;17.19;47.58;100076.97;5059584;28;985;-59
2022/08/17 02:25:42;;;;;;;;;;;;;;;17.14;47.37;100077.06;5063901;28;875;-59
2022/08/17 02:28:07;;;;;;;;;;;;;;;17.13;47.11;100066.34;5054217;28;2534;-59
2022/08/17 02:30:33;;;;;;;;;;;;;;;17.16;46.63;100068.50;5061836;28;1198;-59
2022/08/17 02:32:58;;;;;;;;;;;;;;;17.05;46.45;100073.31;5073618;28;1068;-59
2022/08/17 02:35:24;;;;;;;;;;;;;;;17.04;46.43;100078.00;5074097;28;1207;-59
2022/08/17 02:37:50;;;;;;;;;;;;;;;17.03;46.36;100075.53;5068243;28;971;-59
2022/08/17 02:40:15;;;;;;;;;;;;;;;17.04;46.21;100078.00;5068532;28;1984;-59
2022/08/17 02:42:42;;;;;;;;;;;;;;;16.94;46.44;100067.13;5057156;28;1218;-59
2022/08/17 02:45:11;;;;;;;;;;;;;;;16.92;46.12;100072.91;5056887;28;1068;-59
2022/08/17 02:47:37;;;;;;;;;;;;;;;17.78;46.52;100074.78;5070555;28;890;-61
2022/08/17 02:50:03;;;;;;;;;;;;;;;17.44;47.52;100067.56;5062150;28;958;-61
2022/08/17 02:52:36;;;;;;;;;;;;;;;17.19;47.57;100076.97;5073745;28;1068;-60
2022/08/17 02:55:05;;;;;;;;;;;;;;;17.17;46.90;100081.94;5063566;28;1087;-59
2022/08/17 02:57:31;;;;;;;;;;;;;;;17.09;46.66;100080.66;5032578;28;2720;-59
2022/08/17 02:59:57;;;;;;;;;;;;;;;17.08;46.72;100076.31;5071315;28;1914;-59
2022/08/17 03:02:22;;;;;;;;;;;;;;;16.99;46.78;100080.78;5074145;28;979;-59
2022/08/17 03:04:47;;;;;;;;;;;;;;;17.01;46.66;100088.75;5063548;28;1175;-60
2022/08/17 03:07:14;;;;;;;;;;;;;;;17.04;46.19;100080.75;5077597;28;1020;-60
2022/08/17 03:09:39;;;;;;;;;;;;;;;16.98;46.14;100090.13;5064365;28;1191;-59
2022/08/17 03:12:11;;;;;;;;;;;;;;;16.95;46.26;100079.75;5066323;28;997;-60
2022/08/17 03:14:37;;;;;;;;;;;;;;;16.96;45.95;100081.38;5071271;28;951;-59
2022/08/17 03:17:03;;;;;;;;;;;;;;;16.91;46.34;100084.19;5071530;28;1135;-58
2022/08/17 03:19:28;;;;;;;;;;;;;;;16.90;46.30;100082.53;5058478;28;1010;-58
2022/08/17 03:21:54;;;;;;;;;;;;;;;16.99;45.86;100077.25;5065897;28;1965;-60
2022/08/17 03:24:19;;;;;;;;;;;;;;;16.86;46.12;100087.78;5077789;28;1099;-59
2022/08/17 03:26:45;;;;;;;;;;;;;;;16.83;46.04;100080.13;5058824;28;2406;-58
2022/08/17 03:29:17;;;;;;;;;;;;;;;17.98;46.67;100088.50;5059162;28;938;-57
2022/08/17 03:31:44;;;;;;;;;;;;;;;17.40;47.83;100088.53;5065663;28;1020;-58
2022/08/17 03:34:09;;;;;;;;;;;;;;;17.12;47.56;100086.69;5066411;28;1239;-58
2022/08/17 03:36:35;;;;;;;;;;;;;;;17.10;47.02;100097.97;5073198;28;992;-58
2022/08/17 03:39:00;;;;;;;;;;;;;;;17.10;46.97;100104.28;5068116;28;1064;-59
2022/08/17 03:41:26;;;;;;;;;;;;;;;17.00;46.91;100103.56;5073927;28;1906;-59
2022/08/17 03:43:51;;;;;;;;;;;;;;;17.07;46.30;100110.38;5062999;28;1064;-57
2022/08/17 03:57:15;;;;;;;;;;;;;;;16.93;46.40;100120.44;5066820;28;2458;-57
2022/08/17 03:59:40;;;;;;;;;;;;;;;16.93;46.39;100114.94;5076140;28;1084;-57
2022/08/17 04:02:10;;;;;;;;;;;;;;;18.00;46.52;100116.56;5069591;28;1905;-58
2022/08/17 04:04:36;;;;;;;;;;;;;;;17.36;48.35;100120.47;5071446;28;1009;-57
2022/08/17 04:07:01;;;;;;;;;;;;;;;17.30;47.76;100124.38;5066690;28;1147;-58
2022/08/17 04:09:27;;;;;;;;;;;;;;;17.14;47.52;100121.00;5072560;28;973;-57
2022/08/17 04:11:52;;;;;;;;;;;;;;;17.09;47.07;100113.63;5069327;28;1166;-57
2022/08/17 04:14:18;;;;;;;;;;;;;;;17.02;47.14;100124.16;5070664;28;911;-59
2022/08/17 04:16:44;;;;;;;;;;;;;;;17.10;46.54;100129.00;5074316;28;1107;-59
2022/08/17 04:19:09;;;;;;;;;;;;;;;17.04;46.55;100127.44;5074032;28;993;-57
2022/08/17 04:21:34;;;;;;;;;;;;;;;16.93;46.79;100132.22;5076026;28;1986;-58
2022/08/17 04:24:00;;;;;;;;;;;;;;;16.98;46.52;100134.09;5076212;28;1162;-57
2022/08/17 04:26:27;;;;;;;;;;;;;;;17.00;46.35;100147.53;5065547;28;1812;-57
2022/08/17 04:28:52;;;;;;;;;;;;;;;16.88;46.71;100147.91;5064914;28;1006;-57
2022/08/17 04:31:18;;;;;;;;;;;;;;;18.46;46.79;100146.06;5069843;28;1055;-58
2022/08/17 04:33:43;;;;;;;;;;;;;;;14.44;56.82;100154.09;5070590;28;1075;-59
2022/08/17 04:36:09;;;;;;;;;;;;;;;16.41;50.03;100140.13;5052469;28;970;-57
2022/08/17 04:38:35;;;;;;;;;;;;;;;16.68;48.46;100136.03;5066558;28;771;-57
2022/08/17 04:43:46;;;;;;;;;;;;;;;16.77;47.49;100145.28;5069869;28;1075;-58
2022/08/17 04:46:13;;;;;;;;;;;;;;;16.80;46.93;100143.84;5065688;28;1080;-58
2022/08/17 04:48:45;;;;;;;;;;;;;;;16.77;47.04;100150.75;5071280;28;973;-60
2022/08/17 04:51:18;;;;;;;;;;;;;;;16.87;46.70;100151.75;5063068;28;914;-60
2022/08/17 04:53:44;;;;;;;;;;;;;;;16.70;47.05;100146.72;5059662;28;1010;-59
2022/08/17 04:56:10;;;;;;;;;;;;;;;16.83;46.62;100147.94;5059417;28;1830;-59
2022/08/17 04:58:35;;;;;;;;;;;;;;;17.95;47.27;100154.03;5074597;28;1135;-60
2022/08/17 05:01:01;;;;;;;;;;;;;;;17.30;48.48;100156.53;5075393;28;1925;-58
2022/08/17 05:03:26;;;;;;;;;;;;;;;17.17;47.74;100158.06;5057066;28;884;-58
2022/08/17 05:05:53;;;;;;;;;;;;;;;17.09;47.65;100160.31;5070186;28;1024;-60
2022/08/17 05:08:18;;;;;;;;;;;;;;;17.08;47.22;100161.44;5066400;28;1044;-59
2022/08/17 05:10:44;;;;;;;;;;;;;;;17.04;47.00;100160.41;5070123;28;1012;-58
2022/08/17 05:13:10;;;;;;;;;;;;;;;16.88;47.15;100150.66;5070117;28;957;-59
2022/08/17 05:15:36;;;;;;;;;;;;;;;17.94;47.65;100165.34;5062488;28;3672;-59
2022/08/17 05:18:02;;;;;;;;;;;;;;;17.35;48.52;100171.03;5073547;28;1123;-56
2022/08/17 05:20:27;;;;;;;;;;;;;;;17.31;47.79;100172.72;5072117;28;1882;-60
2022/08/17 05:22:54;;;;;;;;;;;;;;;17.21;47.84;100176.41;5073891;28;1044;-58
2022/08/17 05:25:24;;;;;;;;;;;;;;;17.18;47.35;100177.00;5071966;28;1214;-58
2022/08/17 05:27:49;;;;;;;;;;;;;;;17.08;47.33;100177.94;5059499;28;997;-59
2022/08/17 05:30:15;;;;;;;;;;;;;;;17.12;47.07;100185.59;5063869;28;1504;-58
2022/08/17 05:32:57;;;;;;;;;;;;;;;17.04;47.21;100176.88;5066890;28;926;-58
2022/08/17 05:35:23;;;;;;;;;;;;;;;17.05;46.91;100178.50;5050343;28;1036;-60
2022/08/17 05:37:49;;;;;;;;;;;;;;;17.02;47.04;100190.06;5068962;28;1067;-62
2022/08/17 05:40:15;;;;;;;;;;;;;;;17.08;46.57;100177.09;5059058;28;1976;-62
2022/08/17 05:42:40;;;;;;;;;;;;;;;17.02;46.64;100172.78;5074106;28;1120;-60
2022/08/17 05:45:07;;;;;;;;;;;;;;;17.05;46.70;100183.19;5052533;28;985;-61
2022/08/17 05:47:32;;;;;;;;;;;;;;;18.59;44.39;100180.25;5071264;28;1080;-62
2022/08/17 05:49:57;;;;;;;;;;;;;;;18.20;45.78;100184.19;5068562;28;1103;-61
2022/08/17 05:52:37;;;;;;;;;;;;;;;18.06;46.41;100184.13;5069193;28;1207;-59
2022/08/17 05:55:11;;;;;;;;;;;;;;;17.98;46.94;100185.63;5055193;28;1009;-62
2022/08/17 05:57:40;;;;;;;;;;;;;;;17.90;47.37;100187.06;5061408;28;982;-61
2022/08/17 06:00:06;;;;;;;;;;;;;;;17.84;48.14;100187.44;5074022;28;1914;-61
2022/08/17 06:02:56;;;;;;;;;;;;;;;17.78;48.25;100182.03;5061469;28;906;-62
2022/08/17 06:05:24;;;;;;;;;;;;;;;17.76;48.82;100188.94;5056259;28;973;-61
2022/08/17 06:08:16;;;;;;;;;;;;;;;17.70;49.16;100187.38;5064960;28;1051;-61
2022/08/17 06:10:48;;;;;;;;;;;;;;;17.65;49.31;100182.75;5021349;28;1140;-63
2022/08/17 06:13:13;;;;;;;;;;;;;;;17.66;49.54;100181.63;5069968;28;1051;-61
2022/08/17 06:15:54;;;;;;;;;;;;;;;17.61;50.01;100176.19;5069800;28;969;-62
2022/08/17 06:18:19;;;;;;;;;;;;;;;17.58;50.05;100180.34;5072350;28;985;-61
2022/08/17 06:20:49;;;;;;;;;;;;;;;17.58;50.35;100176.78;5056905;28;1905;-60
2022/08/17 06:23:22;;;;;;;;;;;;;;;17.55;50.51;100171.88;5048522;28;986;-62
2022/08/17 06:25:48;;;;;;;;;;;;;;;17.53;50.75;100171.34;5059936;28;1124;-61
2022/08/17 06:28:15;;;;;;;;;;;;;;;17.49;51.04;100168.38;5049176;28;1010;-62
2022/08/17 06:30:48;;;;;;;;;;;;;;;17.52;50.99;100172.47;5048767;28;957;-65
2022/08/17 06:33:24;;;;;;;;;;;;;;;17.48;51.50;100168.69;5050179;28;1021;-63
2022/08/17 06:36:05;;;;;;;;;;;;;;;17.45;51.56;100165.41;5073966;28;1109;-65
2022/08/17 06:38:48;;;;;;;;;;;;;;;17.47;51.52;100167.84;5064137;28;974;-65
2022/08/17 06:41:18;;;;;;;;;;;;;;;17.44;51.78;100173.94;5042482;28;1979;-61
2022/08/17 06:43:49;;;;;;;;;;;;;;;17.45;52.13;100170.91;5060689;28;982;-61
2022/08/17 06:46:20;;;;;;;;;;;;;;;17.49;51.98;100167.53;5052256;28;1104;-64
2022/08/17 06:49:10;;;;;;;;;;;;;;;17.43;52.14;100170.38;5050561;28;1104;-64
2022/08/17 06:51:39;;;;;;;;;;;;;;;17.47;52.20;100161.53;5053485;28;1250;-65
2022/08/17 06:54:17;;;;;;;;;;;;;;;17.41;52.42;100160.78;5076265;28;1077;-61
2022/08/17 06:56:42;;;;;;;;;;;;;;;17.47;52.50;100167.03;5057042;28;1049;-64
2022/08/17 06:59:09;;;;;;;;;;;;;;;17.53;52.58;100166.69;5077512;28;966;-62
2022/08/17 07:01:35;;;;;;;;;;;;;;;17.44;52.74;100163.75;5059624;28;1906;-61
2022/08/17 07:04:18;;;;;;;;;;;;;;;17.43;52.83;100164.88;5053681;28;939;-64
2022/08/17 07:06:55;;;;;;;;;;;;;;;17.48;52.77;100157.69;5050606;28;1294;-62
2022/08/17 07:09:23;;;;;;;;;;;;;;;17.42;53.08;100162.44;5065582;28;958;-62
2022/08/17 07:11:50;;;;;;;;;;;;;;;17.43;53.20;100156.63;5068394;28;1167;-63
2022/08/17 07:14:19;;;;;;;;;;;;;;;17.49;52.81;100153.81;5065434;28;1068;-57
2022/08/17 07:16:45;;;;;;;;;;;;;;;17.43;53.31;100156.63;5070024;28;1179;-61
2022/08/17 07:19:12;;;;;;;;;;;;;;;17.44;53.08;100161.00;5052016;28;1116;-61
2022/08/17 07:21:47;;;;;;;;;;;;;;;17.48;53.19;100163.19;5047368;28;1906;-61
2022/08/17 07:24:12;;;;;;;;;;;;;;;17.42;53.46;100160.50;5066306;28;1088;-61
2022/08/17 07:26:38;;;;;;;;;;;;;;;17.41;53.48;100160.78;5071500;28;1469;-59
2022/08/17 07:29:03;;;;;;;;;;;;;;;17.43;53.61;100162.13;5048600;28;1216;-60
2022/08/17 07:31:29;;;;;;;;;;;;;;;17.42;53.75;100159.69;5072328;28;1083;-60
2022/08/17 07:33:59;;;;;;;;;;;;;;;17.40;53.86;100162.72;5070482;28;1108;-60
2022/08/17 07:36:25;;;;;;;;;;;;;;;17.43;53.85;100172.28;5074936;28;1025;-59
2022/08/17 07:38:55;;;;;;;;;;;;;;;17.41;53.99;100158.84;5077730;28;1040;-57
2022/08/17 07:41:21;;;;;;;;;;;;;;;17.45;54.11;100164.59;5057729;28;1917;-61
2022/08/17 07:43:46;;;;;;;;;;;;;;;17.43;54.26;100162.13;5077728;28;1017;-61
2022/08/17 07:49:09;;;;;;;;;;;;;;;17.39;54.44;100161.09;5058632;28;1009;-59
2022/08/17 07:51:38;;;;;;;;;;;;;;;17.42;54.40;100159.69;5067243;28;1182;-60
2022/08/17 07:54:21;;;;;;;;;;;;;;;17.47;54.15;100161.53;5074882;28;1282;-59
2022/08/17 07:56:47;;;;;;;;;;;;;;;17.45;54.25;100159.09;5064470;28;974;-61
2022/08/17 07:59:14;;;;;;;;;;;;;;;17.41;54.33;100163.53;5075995;28;1095;-58
2022/08/17 08:01:40;;;;;;;;;;;;;;;17.45;54.29;100157.16;5076347;28;1965;-61
2022/08/17 08:04:22;;;;;;;;;;;;;;;17.42;54.46;100160.50;5049072;28;839;-60
2022/08/17 08:06:51;;;;;;;;;;;;;;;17.45;54.56;100159.09;5047852;28;992;-63
2022/08/17 08:09:29;;;;;;;;;;;;;;;17.43;54.53;100155.81;5054777;28;1056;-61
2022/08/17 08:11:54;;;;;;;;;;;;;;;17.45;54.53;100159.91;5067686;28;1143;-63
2022/08/17 08:14:20;;;;;;;;;;;;;;;17.43;54.55;100156.63;5073695;28;985;-61
2022/08/17 08:17:15;;;;;;;;;;;;;;;17.48;54.45;100157.69;5064094;28;942;-61
2022/08/17 08:19:40;;;;;;;;;;;;;;;17.48;54.59;100154.94;5050878;28;1496;-62
2022/08/17 08:22:11;;;;;;;;;;;;;;;17.49;54.62;100159.31;5073604;28;1914;-62
2022/08/17 08:24:55;;;;;;;;;;;;;;;17.49;54.44;100154.63;5076240;28;1048;-61
2022/08/17 08:27:27;;;;;;;;;;;;;;;17.45;54.39;100140.66;5063394;28;1021;-60
2022/08/17 08:29:56;;;;;;;;;;;;;;;17.50;54.55;100139.78;5046480;28;854;-63
2022/08/17 08:32:21;;;;;;;;;;;;;;;17.50;54.42;100145.28;5065314;28;1170;-62
2022/08/17 08:34:47;;;;;;;;;;;;;;;17.50;54.33;100145.28;5065504;28;1024;-61
2022/08/17 08:37:31;;;;;;;;;;;;;;;17.52;54.41;100147.75;5066048;28;1052;-61
2022/08/17 08:39:58;;;;;;;;;;;;;;;17.45;54.56;100143.41;5061866;28;974;-62
2022/08/17 08:42:50;;;;;;;;;;;;;;;17.51;54.60;100143.34;5068570;28;1910;-61
2022/08/17 08:45:18;;;;;;;;;;;;;;;17.50;54.66;100139.78;5066562;28;1573;-62
2022/08/17 08:47:59;;;;;;;;;;;;;;;17.53;54.81;100143.84;5051525;28;1060;-61
2022/08/17 08:50:39;;;;;;;;;;;;;;;17.53;54.65;100138.34;5072666;28;1079;-63
2022/08/17 08:53:23;;;;;;;;;;;;;;;17.50;54.77;100133.47;5063370;28;891;-62
2022/08/17 08:55:53;;;;;;;;;;;;;;;17.53;54.73;100139.19;5073560;28;1131;-62
2022/08/17 08:58:34;;;;;;;;;;;;;;;17.51;54.58;100137.84;5056615;28;1187;-60
2022/08/17 09:00:59;;;;;;;;;;;;;;;17.53;54.88;100132.88;5055571;28;1914;-60
2022/08/17 09:03:24;;;;;;;;;;;;;;;17.55;54.92;100142.44;5055462;28;1013;-62
2022/08/17 09:05:55;;;;;;;;;;;;;;;17.60;54.57;100142.41;5069885;28;1013;-62
2022/08/17 09:08:26;;;;;;;;;;;;;;;17.56;54.80;100137.78;5075691;28;1167;-61
2022/08/17 09:11:05;;;;;;;;;;;;;;;17.54;54.90;100140.00;5053228;28;969;-61
2022/08/17 09:13:35;;;;;;;;;;;;;;;17.52;55.14;100143.06;5046630;28;1176;-61
2022/08/17 09:16:05;;;;;;;;;;;;;;;17.58;55.00;100130.84;5065111;28;957;-62
2022/08/17 09:18:32;;;;;;;;;;;;;;;17.56;55.13;100140.53;5069245;28;1246;-61
2022/08/17 09:21:09;;;;;;;;;;;;;;;17.57;54.94;100140.25;5063644;28;1980;-61
2022/08/17 09:23:36;;;;;;;;;;;;;;;17.54;55.22;100140.00;5052057;28;1176;-61
2022/08/17 09:26:02;;;;;;;;;;;;;;;17.57;55.05;100128.41;5055921;28;1087;-61
2022/08/17 09:28:28;;;;;;;;;;;;;;;17.56;55.06;100126.78;5067094;28;1139;-60
2022/08/17 09:30:55;;;;;;;;;;;;;;;17.58;55.21;100125.34;5049512;28;1088;-61
2022/08/17 09:33:24;;;;;;;;;;;;;;;17.64;54.80;100126.09;5051776;28;1227;-60
2022/08/17 09:36:01;;;;;;;;;;;;;;;17.64;54.94;100128.84;5040139;28;1483;-62
2022/08/17 09:38:51;;;;;;;;;;;;;;;17.59;55.04;100129.75;5049218;28;970;-62
2022/08/17 09:41:32;;;;;;;;;;;;;;;17.65;55.13;100129.69;5068163;28;1910;-61
2022/08/17 09:44:16;;;;;;;;;;;;;;;17.66;55.17;100134.88;5071357;28;1182;-60
2022/08/17 09:46:50;;;;;;;;;;;;;;;17.65;54.99;100135.19;5058984;28;1005;-62
2022/08/17 09:49:21;;;;;;;;;;;;;;;17.68;55.07;100140.91;5070097;28;1492;-62
2022/08/17 09:51:47;;;;;;;;;;;;;;;17.79;55.39;100133.31;5065380;28;1040;-60
2022/08/17 09:54:19;;;;;;;;;;;;;;;17.71;55.39;100134.00;5047051;28;1119;-61
2022/08/17 09:56:57;;;;;;;;;;;;;;;17.73;55.56;100138.09;5060506;28;981;-59
2022/08/17 09:59:35;;;;;;;;;;;;;;;17.71;55.46;100134.00;5073925;28;1072;-61
2022/08/17 10:02:03;;;;;;;;;;;;;;;17.76;55.24;100131.97;5074628;28;1955;-60
2022/08/17 10:04:41;;;;;;;;;;;;;;;17.74;55.36;100127.88;5062172;28;1148;-60
2022/08/17 10:07:12;;;;;;;;;;;;;;;17.75;55.26;100113.88;5057641;28;966;-59
2022/08/17 10:09:44;;;;;;;;;;;;;;;17.79;55.22;100131.41;5067296;28;1056;-60
2022/08/17 10:12:15;;;;;;;;;;;;;;;17.78;55.26;100117.94;5064692;28;1069;-60
2022/08/17 10:14:50;;;;;;;;;;;;;;;17.79;55.26;100120.41;5065569;28;1040;-59
2022/08/17 10:17:35;;;;;;;;;;;;;;;17.82;55.31;100118.16;5063469;28;939;-61
2022/08/17 10:20:09;;;;;;;;;;;;;;;17.78;55.35;100112.44;5069690;28;1068;-59
2022/08/17 10:28:14;;;;;;;;;;;;;;;17.83;55.29;100115.13;5074168;28;1064;-60
2022/08/17 10:30:47;;;;;;;;;;;;;;;17.85;55.37;100109.31;5038936;28;1199;-60
2022/08/17 10:33:23;;;;;;;;;;;;;;;17.82;55.60;100109.91;5045130;28;1025;-59
2022/08/17 10:35:55;;;;;;;;;;;;;;;17.83;55.57;100097.81;5056508;28;1037;-59
2022/08/17 10:38:30;;;;;;;;;;;;;;;17.87;55.59;100116.16;5070779;28;1072;-59
2022/08/17 10:41:04;;;;;;;;;;;;;;;17.87;55.73;100107.09;5059314;28;1981;-58
2022/08/17 10:43:33;;;;;;;;;;;;;;;17.83;55.76;100095.88;5071645;28;1012;-59
2022/08/17 10:46:13;;;;;;;;;;;;;;;17.88;55.59;100094.97;5067171;28;957;-61
2022/08/17 10:48:39;;;;;;;;;;;;;;;17.89;55.73;100091.09;5069209;28;1005;-62
2022/08/17 10:51:11;;;;;;;;;;;;;;;17.85;55.58;100087.31;5051314;28;1041;-59
2022/08/17 10:53:40;;;;;;;;;;;;;;;17.88;55.59;100089.47;5049800;28;1152;-59
2022/08/17 10:56:12;;;;;;;;;;;;;;;17.90;55.52;100085.31;5061361;28;1025;-57
2022/08/17 10:58:52;;;;;;;;;;;;;;;17.92;55.58;100079.53;5073358;28;1064;-59
2022/08/17 11:01:20;;;;;;;;;;;;;;;17.90;55.64;100081.75;5072525;28;1909;-60
2022/08/17 11:03:53;;;;;;;;;;;;;;;17.95;55.60;100077.00;5056533;28;993;-58
2022/08/17 11:06:31;;;;;;;;;;;;;;;17.97;55.56;100087.72;5069951;28;1163;-60
2022/08/17 11:08:56;;;;;;;;;;;;;;;17.90;55.53;100076.25;5057696;28;1105;-60
2022/08/17 11:11:24;;;;;;;;;;;;;;;17.97;55.67;100076.69;5071949;28;1009;-60
2022/08/17 11:14:08;;;;;;;;;;;;;;;17.92;55.42;100076.78;5071024;28;957;-60
2022/08/17 11:16:34;;;;;;;;;;;;;;;17.92;55.67;100068.53;5067084;28;1047;-60
2022/08/17 11:19:19;;;;;;;;;;;;;;;17.95;55.39;100073.44;5068164;28;978;-60
2022/08/17 11:21:50;;;;;;;;;;;;;;;17.87;55.86;100076.84;5067791;28;1905;-59
2022/08/17 11:24:17;;;;;;;;;;;;;;;17.93;55.34;100081.16;5054542;28;1096;-59
2022/08/17 11:26:47;;;;;;;;;;;;;;;17.88;55.51;100083.97;5057448;28;1022;-60
2022/08/17 11:29:17;;;;;;;;;;;;;;;17.88;55.63;100072.97;5069589;28;1206;-59
2022/08/17 11:31:43;;;;;;;;;;;;;;;17.86;55.67;100072.47;5059112;28;1492;-61
2022/08/17 11:34:08;;;;;;;;;;;;;;;17.87;55.52;100077.66;5065054;28;1096;-60
2022/08/17 11:36:40;;;;;;;;;;;;;;;17.87;55.73;100074.09;5053612;28;1029;-59
2022/08/17 11:39:05;;;;;;;;;;;;;;;17.86;55.66;100069.69;5071250;28;1001;-60
2022/08/17 11:41:34;;;;;;;;;;;;;;;17.80;55.66;100066.22;5065040;28;1905;-60
2022/08/17 11:44:24;;;;;;;;;;;;;;;17.83;55.80;100070.31;5078059;28;945;-59
2022/08/17 11:52:36;;;;;;;;;;;;;;;17.85;55.51;100066.16;5055468;28;1100;-58
2022/08/17 11:55:01;;;;;;;;;;;;;;;17.84;55.41;100063.66;5061540;28;1006;-60
2022/08/17 11:57:28;;;;;;;;;;;;;;;17.83;55.55;100073.06;5075361;28;1013;-59
2022/08/17 11:59:53;;;;;;;;;;;;;;;17.86;55.56;100097.22;5074640;28;1147;-60
2022/08/17 12:02:34;;;;;;;;;;;;;;;17.80;55.85;100110.22;5076240;28;1909;-61
2022/08/17 12:05:21;;;;;;;;;;;;;;;17.81;55.71;100095.38;5072871;28;1199;-60
2022/08/17 12:07:51;;;;;;;;;;;;;;;17.78;55.93;100094.03;5064898;28;957;-59
2022/08/17 12:10:17;;;;;;;;;;;;;;;17.76;55.88;100098.97;5045774;28;1172;-59
2022/08/17 12:12:43;;;;;;;;;;;;;;;17.77;55.92;100105.31;5053973;28;994;-60
2022/08/17 12:15:13;;;;;;;;;;;;;;;17.78;55.63;100088.53;5073080;28;1127;-59
2022/08/17 12:17:38;;;;;;;;;;;;;;;17.74;56.05;100094.91;5045912;28;1049;-62
2022/08/17 12:20:33;;;;;;;;;;;;;;;17.77;55.81;100086.88;5068402;28;1088;-60
2022/08/17 12:23:03;;;;;;;;;;;;;;;17.73;55.76;100082.28;5051774;28;1286;-61
2022/08/17 12:25:37;;;;;;;;;;;;;;;17.74;55.90;100079.22;5073724;28;1123;-61
2022/08/17 12:28:04;;;;;;;;;;;;;;;17.72;55.77;100075.16;5076359;28;1237;-59
2022/08/17 12:30:30;;;;;;;;;;;;;;;17.67;55.90;100066.97;5064229;28;1092;-60
2022/08/17 12:32:55;;;;;;;;;;;;;;;17.69;55.70;100060.06;5061319;28;1072;-60
2022/08/17 12:35:33;;;;;;;;;;;;;;;17.70;55.73;100067.19;5068956;28;1087;-59
2022/08/17 12:37:59;;;;;;;;;;;;;;;17.67;56.04;100072.47;5052943;28;1017;-61
2022/08/17 12:40:30;;;;;;;;;;;;;;;17.63;55.85;100080.50;5070273;28;1902;-62
2022/08/17 12:42:59;;;;;;;;;;;;;;;17.65;55.72;100080.19;5065637;28;883;-60
2022/08/17 12:45:25;;;;;;;;;;;;;;;17.63;55.80;100075.00;5071030;28;1103;-61
2022/08/17 12:48:07;;;;;;;;;;;;;;;17.61;56.13;100075.31;5067958;28;999;-61
2022/08/17 12:50:33;;;;;;;;;;;;;;;17.60;55.87;100072.84;5064213;28;996;-60
2022/08/17 12:52:59;;;;;;;;;;;;;;;17.62;55.91;100070.63;5051242;28;1117;-62
2022/08/17 12:55:25;;;;;;;;;;;;;;;17.61;55.90;100071.72;5063296;28;1060;-62
2022/08/17 12:57:52;;;;;;;;;;;;;;;17.61;55.87;100071.72;5054765;28;1112;-61
2022/08/17 13:00:25;;;;;;;;;;;;;;;17.56;55.80;100069.06;5068809;28;1045;-61
2022/08/17 13:02:52;;;;;;;;;;;;;;;17.56;55.90;100077.31;5068900;28;1155;-63
2022/08/17 13:05:23;;;;;;;;;;;;;;;17.57;55.76;100065.19;5076024;28;1060;-61
2022/08/17 13:07:49;;;;;;;;;;;;;;;17.52;55.95;100070.78;5052631;28;970;-62
2022/08/17 13:10:22;;;;;;;;;;;;;;;17.55;55.88;100065.47;5063621;28;965;-61
2022/08/17 13:12:49;;;;;;;;;;;;;;;17.54;55.86;100068.53;5064789;28;1043;-60
2022/08/17 13:15:19;;;;;;;;;;;;;;;17.53;56.00;100072.38;5066629;28;1286;-59
2022/08/17 13:17:44;;;;;;;;;;;;;;;17.52;55.92;100071.59;5072434;28;1087;-62
2022/08/17 13:20:13;;;;;;;;;;;;;;;17.51;55.88;100064.44;5054450;28;1222;-61
2022/08/17 13:22:38;;;;;;;;;;;;;;;17.51;55.91;100056.19;5063243;28;1909;-60
2022/08/17 13:25:06;;;;;;;;;;;;;;;17.57;55.60;100065.19;5054214;28;1009;-60
2022/08/17 13:27:31;;;;;;;;;;;;;;;17.49;55.69;100058.44;5074295;28;1040;-60